createdAt,value
2016-10-06T00:00:06.492Z,0
2016-10-06T00:01:16.465Z,0
2016-10-06T00:02:26.466Z,0
2016-10-06T00:03:36.437Z,0
2016-10-06T00:04:46.118Z,0
2016-10-06T00:05:56.396Z,0
2016-10-06T00:07:06.068Z,0
2016-10-06T00:08:16.347Z,0
2016-10-06T00:09:26.633Z,0
2016-10-06T00:10:36.904Z,0
2016-10-06T00:11:46.877Z,0
2016-10-06T00:12:56.869Z,0
2016-10-06T00:14:07.170Z,0
2016-10-06T00:15:17.464Z,0
2016-10-06T00:16:27.753Z,0
2016-10-06T00:17:38.017Z,0
2016-10-06T00:18:47.691Z,0
2016-10-06T00:19:57.037Z,0
2016-10-06T00:21:06.710Z,0
2016-10-06T00:22:16.682Z,0
2016-10-06T00:23:26.348Z,0
2016-10-06T00:24:36.624Z,0
2016-10-06T00:25:46.286Z,0
2016-10-06T00:26:56.263Z,0
2016-10-06T00:28:06.555Z,0
2016-10-06T00:29:16.822Z,0
2016-10-06T00:30:27.333Z,0
2016-10-06T00:31:37.623Z,0
2016-10-06T00:32:47.905Z,0
2016-10-06T00:33:58.189Z,0
2016-10-06T00:35:08.469Z,0
2016-10-06T00:36:18.130Z,0
2016-10-06T00:37:28.109Z,0
2016-10-06T00:38:38.095Z,0
2016-10-06T00:39:48.392Z,0
2016-10-06T00:40:58.683Z,0
2016-10-06T00:42:08.675Z,0
2016-10-06T00:43:18.640Z,0
2016-10-06T00:44:28.293Z,0
2016-10-06T00:45:38.585Z,0
2016-10-06T00:46:48.889Z,0
2016-10-06T00:47:58.883Z,0
2016-10-06T00:49:08.870Z,0
2016-10-06T00:50:18.877Z,0
2016-10-06T00:51:29.164Z,0
2016-10-06T00:52:39.466Z,0
2016-10-06T00:53:49.140Z,0
2016-10-06T00:54:58.514Z,0
2016-10-06T00:56:08.484Z,0
2016-10-06T00:57:18.455Z,0
2016-10-06T00:58:28.747Z,0
2016-10-06T00:59:39.030Z,0
2016-10-06T01:00:49.028Z,0
2016-10-06T01:01:58.689Z,0
2016-10-06T01:03:08.975Z,0
2016-10-06T01:04:18.959Z,0
2016-10-06T01:05:28.938Z,0
2016-10-06T01:06:38.602Z,0
2016-10-06T01:07:48.891Z,0
2016-10-06T01:08:59.407Z,0
2016-10-06T01:10:09.698Z,0
2016-10-06T01:11:18.753Z,0
2016-10-06T01:12:29.057Z,0
2016-10-06T01:13:39.048Z,0
2016-10-06T01:14:49.024Z,0
2016-10-06T01:15:59.303Z,0
2016-10-06T01:17:08.962Z,0
2016-10-06T01:18:19.251Z,0
2016-10-06T01:19:29.217Z,0
2016-10-06T01:20:39.189Z,0
2016-10-06T01:21:49.475Z,0
2016-10-06T01:22:59.460Z,0
2016-10-06T01:24:09.723Z,0
2016-10-06T01:25:19.388Z,0
2016-10-06T01:26:29.667Z,0
2016-10-06T01:27:39.946Z,0
2016-10-06T01:28:49.922Z,0
2016-10-06T01:30:00.198Z,0
2016-10-06T01:31:09.877Z,0
2016-10-06T01:32:20.201Z,0
2016-10-06T01:33:30.475Z,0
2016-10-06T01:34:40.155Z,0
2016-10-06T01:35:50.124Z,0
2016-10-06T01:37:00.405Z,0
2016-10-06T01:38:10.385Z,0
2016-10-06T01:39:20.363Z,0
2016-10-06T01:40:30.657Z,0
2016-10-06T01:41:40.931Z,0
2016-10-06T01:42:50.912Z,0
2016-10-06T01:44:01.204Z,0
2016-10-06T01:45:11.482Z,0
2016-10-06T01:46:21.456Z,0
2016-10-06T01:47:31.439Z,0
2016-10-06T01:48:41.403Z,0
2016-10-06T01:49:51.683Z,0
2016-10-06T01:51:01.660Z,0
2016-10-06T01:52:11.635Z,0
2016-10-06T01:53:21.604Z,0
2016-10-06T01:54:31.271Z,0
2016-10-06T01:55:41.556Z,0
2016-10-06T01:56:51.219Z,0
2016-10-06T01:58:00.889Z,0
2016-10-06T01:59:11.176Z,0
2016-10-06T02:00:21.149Z,0
2016-10-06T02:01:31.435Z,0
2016-10-06T02:02:41.713Z,0
2016-10-06T02:03:51.693Z,0
2016-10-06T02:05:01.990Z,0
2016-10-06T02:06:12.268Z,0
2016-10-06T02:07:22.234Z,0
2016-10-06T02:08:32.201Z,0
2016-10-06T02:09:41.853Z,0
2016-10-06T02:10:52.159Z,0
2016-10-06T02:12:02.132Z,0
2016-10-06T02:13:11.812Z,0
2016-10-06T02:14:21.785Z,0
2016-10-06T02:15:32.077Z,0
2016-10-06T02:16:42.068Z,0
2016-10-06T02:17:52.055Z,0
2016-10-06T02:19:02.335Z,0
2016-10-06T02:20:12.622Z,0
2016-10-06T02:21:22.304Z,0
2016-10-06T02:22:32.276Z,0
2016-10-06T02:23:42.587Z,0
2016-10-06T02:24:52.256Z,0
2016-10-06T02:26:02.237Z,0
2016-10-06T02:27:12.520Z,0
2016-10-06T02:28:22.794Z,0
2016-10-06T02:29:32.778Z,0
2016-10-06T02:30:43.050Z,0
2016-10-06T02:31:53.048Z,0
2016-10-06T02:33:03.031Z,0
2016-10-06T02:34:12.999Z,0
2016-10-06T02:35:23.265Z,0
2016-10-06T02:36:33.256Z,0
2016-10-06T02:37:43.533Z,0
2016-10-06T02:38:53.810Z,0
2016-10-06T02:40:03.471Z,0
2016-10-06T02:41:13.471Z,0
2016-10-06T02:42:23.755Z,0
2016-10-06T02:43:34.193Z,0
2016-10-06T02:44:44.168Z,0
2016-10-06T02:45:54.456Z,0
2016-10-06T02:47:04.421Z,0
2016-10-06T02:48:14.389Z,0
2016-10-06T02:49:24.661Z,0
2016-10-06T02:50:34.627Z,0
2016-10-06T02:51:44.585Z,0
2016-10-06T02:52:54.561Z,0
2016-10-06T02:54:04.835Z,0
2016-10-06T02:55:15.112Z,0
2016-10-06T02:56:25.412Z,0
2016-10-06T02:57:35.719Z,0
2016-10-06T02:58:45.695Z,0
2016-10-06T02:59:55.978Z,0
2016-10-06T03:32:32.798Z,0
2016-10-06T03:33:42.750Z,0
2016-10-06T03:34:53.026Z,0
2016-10-06T03:36:02.692Z,0
2016-10-06T03:37:12.665Z,0
2016-10-06T03:38:22.955Z,0
2016-10-06T03:39:32.630Z,0
2016-10-06T03:40:42.924Z,0
2016-10-06T03:41:52.917Z,0
2016-10-06T03:43:03.209Z,0
2016-10-06T03:44:13.505Z,0
2016-10-06T03:45:23.514Z,0
2016-10-06T03:46:33.821Z,0
2016-10-06T03:47:44.119Z,0
2016-10-06T03:48:54.400Z,0
2016-10-06T03:50:04.380Z,0
2016-10-06T03:51:14.659Z,0
2016-10-06T03:52:24.962Z,0
2016-10-06T03:53:35.246Z,0
2016-10-06T03:54:44.915Z,0
2016-10-06T03:55:54.887Z,0
2016-10-06T03:57:05.168Z,0
2016-10-06T03:58:15.134Z,0
2016-10-06T03:59:25.149Z,0
2016-10-06T04:00:35.132Z,0
2016-10-06T04:01:45.095Z,0
2016-10-06T04:02:55.371Z,0
2016-10-06T04:04:05.056Z,0
2016-10-06T04:05:15.354Z,0
2016-10-06T04:06:25.326Z,0
2016-10-06T04:07:35.308Z,0
2016-10-06T04:08:45.273Z,0
2016-10-06T04:09:54.936Z,0
2016-10-06T04:11:04.927Z,0
2016-10-06T04:12:15.223Z,0
2016-10-06T04:13:25.191Z,0
2016-10-06T04:14:34.849Z,0
2016-10-06T04:15:44.845Z,0
2016-10-06T04:16:55.137Z,0
2016-10-06T04:18:05.413Z,0
2016-10-06T04:19:15.091Z,0
2016-10-06T04:20:25.377Z,0
2016-10-06T04:21:35.687Z,0
2016-10-06T04:22:45.964Z,0
2016-10-06T04:23:56.256Z,0
2016-10-06T04:25:06.541Z,0
2016-10-06T04:26:16.524Z,0
2016-10-06T04:27:26.825Z,0
2016-10-06T04:28:36.808Z,0
2016-10-06T04:29:46.794Z,0
2016-10-06T04:30:56.773Z,0
2016-10-06T04:32:06.742Z,0
2016-10-06T04:33:16.729Z,0
2016-10-06T04:34:26.712Z,0
2016-10-06T04:35:36.989Z,0
2016-10-06T04:36:46.968Z,0
2016-10-06T04:37:57.275Z,0
2016-10-06T04:39:07.250Z,0
2016-10-06T04:40:16.925Z,0
2016-10-06T04:41:26.600Z,0
2016-10-06T04:42:36.573Z,0
2016-10-06T04:43:46.858Z,0
2016-10-06T04:44:56.836Z,0
2016-10-06T04:46:07.132Z,0
2016-10-06T04:47:17.115Z,0
2016-10-06T04:48:27.396Z,0
2016-10-06T04:49:37.358Z,0
2016-10-06T04:50:47.641Z,0
2016-10-06T04:51:57.323Z,0
2016-10-06T04:53:07.302Z,0
2016-10-06T04:54:17.575Z,0
2016-10-06T04:55:27.545Z,0
2016-10-06T04:56:37.524Z,0
2016-10-06T04:57:47.805Z,0
2016-10-06T04:58:58.097Z,0
2016-10-06T05:00:07.757Z,0
2016-10-06T05:01:18.068Z,0
2016-10-06T05:02:28.353Z,0
2016-10-06T05:03:38.634Z,0
2016-10-06T05:04:48.604Z,0
2016-10-06T05:05:58.893Z,0
2016-10-06T05:07:08.857Z,0
2016-10-06T05:08:19.159Z,0
2016-10-06T05:09:29.457Z,0
2016-10-06T05:10:39.448Z,0
2016-10-06T05:11:49.733Z,0
2016-10-06T05:13:00.021Z,0
2016-10-06T05:14:09.996Z,0
2016-10-06T05:15:20.319Z,5
2016-10-06T05:16:30.293Z,5
2016-10-06T05:17:40.277Z,5
2016-10-06T05:18:50.250Z,5
2016-10-06T05:20:00.225Z,5
2016-10-06T05:21:10.188Z,5
2016-10-06T05:22:19.860Z,5
2016-10-06T05:23:30.136Z,5
2016-10-06T05:24:40.430Z,5
2016-10-06T05:25:50.713Z,5
2016-10-06T05:27:00.381Z,10
2016-10-06T05:28:10.676Z,10
2016-10-06T05:29:20.019Z,10
2016-10-06T05:30:29.988Z,10
2016-10-06T05:31:39.664Z,15
2016-10-06T05:32:49.630Z,15
2016-10-06T05:33:59.931Z,15
2016-10-06T05:35:10.218Z,15
2016-10-06T05:36:20.201Z,15
2016-10-06T05:37:30.483Z,20
2016-10-06T05:38:40.806Z,20
2016-10-06T05:39:50.786Z,20
2016-10-06T05:41:01.080Z,20
2016-10-06T05:42:11.371Z,20
2016-10-06T05:43:21.671Z,25
2016-10-06T05:44:31.962Z,25
2016-10-06T05:45:42.240Z,25
2016-10-06T05:46:51.917Z,25
2016-10-06T05:48:02.202Z,25
2016-10-06T05:49:12.202Z,30
2016-10-06T05:50:22.168Z,30
2016-10-06T05:51:31.836Z,30
2016-10-06T05:52:41.814Z,35
2016-10-06T05:53:51.795Z,40
2016-10-06T05:55:02.091Z,40
2016-10-06T05:56:12.393Z,40
2016-10-06T05:57:22.060Z,45
2016-10-06T05:58:32.061Z,50
2016-10-06T05:59:42.355Z,50
2016-10-06T06:00:52.329Z,50
2016-10-06T06:02:02.311Z,50
2016-10-06T06:03:12.597Z,45
2016-10-06T06:04:22.871Z,45
2016-10-06T06:05:33.159Z,45
2016-10-06T06:06:43.131Z,50
2016-10-06T06:07:53.415Z,45
2016-10-06T06:09:03.383Z,45
2016-10-06T06:10:13.056Z,45
2016-10-06T06:11:23.029Z,45
2016-10-06T06:12:33.320Z,45
2016-10-06T06:13:43.291Z,45
2016-10-06T06:14:53.577Z,50
2016-10-06T06:16:03.248Z,50
2016-10-06T06:17:13.229Z,60
2016-10-06T06:18:23.506Z,65
2016-10-06T06:19:33.493Z,65
2016-10-06T06:20:43.782Z,65
2016-10-06T06:21:54.054Z,65
2016-10-06T06:23:04.031Z,65
2016-10-06T06:24:14.327Z,60
2016-10-06T06:25:24.630Z,65
2016-10-06T06:26:34.604Z,60
2016-10-06T06:27:44.573Z,60
2016-10-06T06:28:54.554Z,60
2016-10-06T06:30:04.839Z,60
2016-10-06T06:31:15.119Z,60
2016-10-06T06:32:25.420Z,60
2016-10-06T06:33:35.421Z,60
2016-10-06T06:34:45.708Z,55
2016-10-06T06:35:55.705Z,55
2016-10-06T06:37:05.675Z,55
2016-10-06T06:38:15.974Z,55
2016-10-06T06:39:26.256Z,55
2016-10-06T06:40:36.544Z,60
2016-10-06T06:41:46.519Z,55
2016-10-06T06:42:56.805Z,60
2016-10-06T06:44:07.088Z,60
2016-10-06T06:45:16.750Z,65
2016-10-06T06:46:27.040Z,65
2016-10-06T06:47:37.326Z,65
2016-10-06T06:48:47.039Z,60
2016-10-06T06:49:56.406Z,60
2016-10-06T06:51:06.687Z,50
2016-10-06T06:52:16.666Z,45
2016-10-06T06:53:27.031Z,45
2016-10-06T06:54:37.312Z,40
2016-10-06T06:55:47.309Z,40
2016-10-06T06:56:57.606Z,40
2016-10-06T06:58:07.901Z,40
2016-10-06T06:59:18.180Z,40
2016-10-06T07:00:28.175Z,40
2016-10-06T07:01:38.458Z,45
2016-10-06T07:02:48.132Z,45
2016-10-06T07:03:57.802Z,40
2016-10-06T07:05:08.073Z,40
2016-10-06T07:06:18.072Z,45
2016-10-06T07:07:28.363Z,45
2016-10-06T07:08:38.354Z,45
2016-10-06T07:09:48.649Z,45
2016-10-06T07:10:58.949Z,45
2016-10-06T07:12:08.925Z,50
2016-10-06T07:13:18.917Z,50
2016-10-06T07:14:29.187Z,50
2016-10-06T07:15:38.848Z,50
2016-10-06T07:16:48.847Z,50
2016-10-06T07:17:59.122Z,50
2016-10-06T07:19:08.800Z,55
2016-10-06T07:20:18.776Z,55
2016-10-06T07:21:29.291Z,55
2016-10-06T07:22:39.595Z,55
2016-10-06T07:23:49.252Z,55
2016-10-06T07:24:59.533Z,55
2016-10-06T07:26:09.521Z,55
2016-10-06T07:27:19.855Z,55
2016-10-06T07:28:30.153Z,55
2016-10-06T07:29:40.440Z,60
2016-10-06T07:30:50.418Z,60
2016-10-06T07:32:00.764Z,60
2016-10-06T07:33:10.432Z,60
2016-10-06T07:34:20.413Z,60
2016-10-06T07:35:30.406Z,60
2016-10-06T07:36:40.412Z,60
2016-10-06T07:37:50.697Z,65
2016-10-06T07:39:00.983Z,55
2016-10-06T07:40:10.969Z,55
2016-10-06T07:41:21.262Z,55
2016-10-06T07:42:31.263Z,55
2016-10-06T07:43:41.234Z,55
2016-10-06T07:44:51.525Z,55
2016-10-06T07:46:01.193Z,55
2016-10-06T07:47:10.864Z,55
2016-10-06T07:48:20.843Z,50
2016-10-06T07:49:31.119Z,50
2016-10-06T07:50:40.791Z,50
2016-10-06T07:51:51.112Z,50
2016-10-06T07:53:01.401Z,45
2016-10-06T07:54:11.698Z,45
2016-10-06T07:55:21.683Z,45
2016-10-06T07:56:31.663Z,45
2016-10-06T07:57:41.949Z,45
2016-10-06T07:58:52.241Z,45
2016-10-06T08:00:02.228Z,45
2016-10-06T08:01:12.505Z,45
2016-10-06T08:02:22.469Z,45
2016-10-06T08:03:32.758Z,45
2016-10-06T08:04:42.735Z,45
2016-10-06T08:05:52.713Z,50
2016-10-06T08:07:02.992Z,50
2016-10-06T08:08:12.669Z,50
2016-10-06T08:09:22.963Z,50
2016-10-06T08:10:33.319Z,55
2016-10-06T08:11:43.301Z,55
2016-10-06T08:12:53.285Z,55
2016-10-06T08:14:03.274Z,60
2016-10-06T08:15:13.572Z,65
2016-10-06T08:16:23.863Z,70
2016-10-06T08:17:34.169Z,75
2016-10-06T08:18:44.473Z,75
2016-10-06T08:19:54.774Z,75
2016-10-06T08:21:04.463Z,80
2016-10-06T08:22:14.795Z,85
2016-10-06T08:23:24.765Z,85
2016-10-06T08:24:34.750Z,95
2016-10-06T08:25:45.083Z,100
2016-10-06T08:26:55.394Z,105
2016-10-06T08:28:05.063Z,110
2016-10-06T08:29:15.351Z,110
2016-10-06T08:30:25.337Z,115
2016-10-06T08:31:35.624Z,120
2016-10-06T08:32:45.602Z,125
2016-10-06T08:33:55.885Z,130
2016-10-06T08:35:06.186Z,140
2016-10-06T08:36:16.167Z,145
2016-10-06T08:37:26.452Z,150
2016-10-06T08:38:35.819Z,155
2016-10-06T08:39:46.138Z,155
2016-10-06T08:40:56.416Z,160
2016-10-06T08:42:06.386Z,155
2016-10-06T08:43:16.062Z,150
2016-10-06T08:44:26.347Z,140
2016-10-06T08:45:36.024Z,135
2016-10-06T08:46:46.001Z,140
2016-10-06T08:47:55.983Z,140
2016-10-06T08:49:05.981Z,150
2016-10-06T08:50:15.976Z,155
2016-10-06T08:51:26.293Z,160
2016-10-06T08:52:36.580Z,150
2016-10-06T08:53:46.573Z,130
2016-10-06T08:54:56.854Z,120
2016-10-06T08:56:06.846Z,110
2016-10-06T08:57:16.845Z,100
2016-10-06T08:58:27.131Z,95
2016-10-06T08:59:37.425Z,90
2016-10-06T09:00:47.406Z,90
2016-10-06T09:01:57.385Z,95
2016-10-06T09:03:07.692Z,105
2016-10-06T09:04:17.676Z,120
2016-10-06T09:05:27.653Z,130
2016-10-06T09:06:37.944Z,135
2016-10-06T09:07:47.907Z,145
2016-10-06T09:08:58.199Z,140
2016-10-06T09:10:08.492Z,130
2016-10-06T09:11:18.466Z,130
2016-10-06T09:12:28.744Z,125
2016-10-06T09:13:39.051Z,120
2016-10-06T09:14:49.362Z,110
2016-10-06T09:15:59.660Z,100
2016-10-06T09:17:09.950Z,100
2016-10-06T09:18:19.933Z,90
2016-10-06T09:19:29.605Z,90
2016-10-06T09:20:39.600Z,105
2016-10-06T09:21:49.298Z,115
2016-10-06T09:22:59.288Z,130
2016-10-06T09:24:09.278Z,145
2016-10-06T09:25:19.581Z,160
2016-10-06T09:26:29.884Z,160
2016-10-06T09:27:40.177Z,160
2016-10-06T09:28:50.163Z,165
2016-10-06T09:30:00.150Z,175
2016-10-06T09:31:09.832Z,175
2016-10-06T09:32:19.818Z,170
2016-10-06T09:33:29.809Z,165
2016-10-06T09:34:40.107Z,165
2016-10-06T09:35:50.395Z,165
2016-10-06T09:37:00.392Z,165
2016-10-06T09:38:10.686Z,170
2016-10-06T09:39:20.984Z,185
2016-10-06T09:40:31.282Z,200
2016-10-06T09:41:41.589Z,195
2016-10-06T09:42:51.882Z,185
2016-10-06T09:44:01.874Z,185
2016-10-06T09:45:12.173Z,190
2016-10-06T09:46:22.474Z,175
2016-10-06T09:47:32.442Z,155
2016-10-06T09:48:42.422Z,135
2016-10-06T09:49:52.949Z,140
2016-10-06T09:51:03.234Z,155
2016-10-06T09:52:13.509Z,160
2016-10-06T09:53:23.499Z,160
2016-10-06T09:54:33.481Z,165
2016-10-06T09:55:43.792Z,165
2016-10-06T09:56:53.790Z,155
2016-10-06T09:58:04.086Z,160
2016-10-06T09:59:14.374Z,160
2016-10-06T10:00:24.664Z,165
2016-10-06T10:01:34.973Z,170
2016-10-06T10:02:44.939Z,190
2016-10-06T10:03:55.241Z,205
2016-10-06T10:05:05.237Z,210
2016-10-06T10:06:15.210Z,210
2016-10-06T10:07:25.239Z,215
2016-10-06T10:08:35.237Z,215
2016-10-06T10:09:45.532Z,220
2016-10-06T10:10:55.822Z,225
2016-10-06T10:12:06.116Z,230
2016-10-06T10:13:16.393Z,220
2016-10-06T10:14:26.379Z,230
2016-10-06T10:15:36.376Z,225
2016-10-06T10:16:46.356Z,220
2016-10-06T10:17:56.340Z,215
2016-10-06T10:19:06.326Z,210
2016-10-06T10:20:16.635Z,200
2016-10-06T10:21:26.920Z,190
2016-10-06T10:22:37.208Z,180
2016-10-06T10:23:47.202Z,180
2016-10-06T10:24:56.860Z,185
2016-10-06T10:26:07.166Z,195
2016-10-06T10:27:17.491Z,190
2016-10-06T10:28:27.790Z,195
2016-10-06T10:29:38.164Z,180
2016-10-06T10:30:48.443Z,170
2016-10-06T10:31:57.816Z,160
2016-10-06T10:33:07.498Z,160
2016-10-06T10:34:17.799Z,165
2016-10-06T10:35:27.811Z,170
2016-10-06T10:36:37.801Z,195
2016-10-06T10:37:48.098Z,210
2016-10-06T10:38:58.390Z,225
2016-10-06T10:40:08.389Z,230
2016-10-06T10:41:18.690Z,225
2016-10-06T10:42:28.692Z,200
2016-10-06T10:43:38.672Z,180
2016-10-06T10:44:48.043Z,160
2016-10-06T10:45:58.331Z,155
2016-10-06T10:47:08.418Z,160
2016-10-06T10:48:18.400Z,160
2016-10-06T10:49:28.381Z,155
2016-10-06T10:50:38.667Z,140
2016-10-06T10:51:48.666Z,120
2016-10-06T10:52:58.971Z,115
2016-10-06T10:54:09.265Z,110
2016-10-06T10:55:19.561Z,110
2016-10-06T10:56:29.541Z,100
2016-10-06T10:57:39.560Z,90
2016-10-06T10:58:49.254Z,95
2016-10-06T10:59:59.225Z,105
2016-10-06T11:01:09.519Z,95
2016-10-06T11:02:19.818Z,85
2016-10-06T11:03:29.517Z,75
2016-10-06T11:04:39.493Z,75
2016-10-06T11:05:49.493Z,80
2016-10-06T11:06:59.793Z,80
2016-10-06T11:08:09.781Z,80
2016-10-06T11:09:19.769Z,85
2016-10-06T11:10:30.297Z,90
2016-10-06T11:11:40.518Z,85
2016-10-06T11:12:50.504Z,85
2016-10-06T11:14:00.210Z,80
2016-10-06T11:15:09.888Z,70
2016-10-06T11:16:20.196Z,60
2016-10-06T11:17:30.481Z,60
2016-10-06T11:18:40.165Z,55
2016-10-06T11:19:50.145Z,55
2016-10-06T11:21:00.433Z,55
2016-10-06T11:22:10.421Z,60
2016-10-06T11:23:20.712Z,65
2016-10-06T11:24:30.691Z,65
2016-10-06T11:25:40.690Z,60
2016-10-06T11:26:50.967Z,55
2016-10-06T11:28:00.649Z,55
2016-10-06T11:29:10.940Z,60
2016-10-06T11:30:20.906Z,50
2016-10-06T11:31:30.894Z,50
2016-10-06T11:32:40.879Z,50
2016-10-06T11:33:50.853Z,50
2016-10-06T11:35:01.143Z,50
2016-10-06T11:36:11.144Z,50
2016-10-06T11:37:21.438Z,50
2016-10-06T11:38:31.448Z,55
2016-10-06T11:39:41.749Z,60
2016-10-06T11:40:51.717Z,65
2016-10-06T11:42:02.018Z,65
2016-10-06T11:43:12.010Z,65
2016-10-06T11:44:22.001Z,65
2016-10-06T11:45:31.690Z,70
2016-10-06T11:46:41.689Z,70
2016-10-06T11:47:51.974Z,75
2016-10-06T11:49:02.268Z,80
2016-10-06T11:50:12.241Z,80
2016-10-06T11:51:22.217Z,85
2016-10-06T11:52:32.524Z,85
2016-10-06T11:53:42.815Z,85
2016-10-06T11:54:52.803Z,85
2016-10-06T11:56:02.765Z,85
2016-10-06T11:57:12.757Z,80
2016-10-06T11:58:22.739Z,80
2016-10-06T11:59:32.725Z,70
2016-10-06T12:00:43.020Z,65
2016-10-06T12:01:53.318Z,65
2016-10-06T12:03:03.605Z,70
2016-10-06T12:04:13.571Z,70
2016-10-06T12:05:23.871Z,65
2016-10-06T12:06:33.855Z,55
2016-10-06T12:07:44.169Z,50
2016-10-06T12:08:54.450Z,45
2016-10-06T12:10:04.430Z,40
2016-10-06T12:11:14.416Z,35
2016-10-06T12:12:24.704Z,35
2016-10-06T12:13:35.005Z,35
2016-10-06T12:14:45.288Z,30
2016-10-06T12:15:55.709Z,30
2016-10-06T12:17:05.399Z,30
2016-10-06T12:18:15.090Z,25
2016-10-06T12:19:25.376Z,25
2016-10-06T12:20:35.058Z,25
2016-10-06T12:21:45.363Z,30
2016-10-06T12:22:55.343Z,30
2016-10-06T12:24:05.424Z,30
2016-10-06T12:25:15.702Z,30
2016-10-06T12:26:25.700Z,30
2016-10-06T12:27:35.996Z,30
2016-10-06T12:28:45.975Z,30
2016-10-06T12:29:55.666Z,35
2016-10-06T12:31:05.659Z,30
2016-10-06T12:32:15.978Z,30
2016-10-06T12:33:25.960Z,30
2016-10-06T12:34:36.262Z,30
2016-10-06T12:35:46.558Z,35
2016-10-06T12:36:56.555Z,35
2016-10-06T12:38:06.860Z,35
2016-10-06T12:39:16.865Z,35
2016-10-06T12:40:26.844Z,35
2016-10-06T12:41:37.130Z,35
2016-10-06T12:42:47.418Z,35
2016-10-06T12:43:57.734Z,35
2016-10-06T12:45:08.043Z,35
2016-10-06T12:46:18.328Z,35
2016-10-06T12:47:28.620Z,35
2016-10-06T12:48:38.631Z,35
2016-10-06T12:49:48.918Z,35
2016-10-06T12:50:59.215Z,35
2016-10-06T12:52:09.193Z,35
2016-10-06T12:53:19.480Z,35
2016-10-06T12:54:29.156Z,35
2016-10-06T12:55:39.459Z,35
2016-10-06T12:56:49.442Z,40
2016-10-06T12:57:59.432Z,40
2016-10-06T12:59:09.723Z,40
2016-10-06T13:00:20.023Z,40
2016-10-06T13:01:30.013Z,35
2016-10-06T13:02:40.020Z,35
2016-10-06T13:03:50.597Z,35
2016-10-06T13:05:00.872Z,40
2016-10-06T13:06:11.178Z,40
2016-10-06T13:07:20.851Z,35
2016-10-06T13:08:31.153Z,35
2016-10-06T13:09:41.459Z,35
2016-10-06T13:10:51.461Z,35
2016-10-06T13:12:01.443Z,40
2016-10-06T13:13:11.420Z,45
2016-10-06T13:14:21.402Z,50
2016-10-06T13:15:31.703Z,45
2016-10-06T13:16:42.339Z,45
2016-10-06T13:17:52.636Z,50
2016-10-06T13:19:02.932Z,50
2016-10-06T13:20:12.629Z,45
2016-10-06T13:21:22.946Z,45
2016-10-06T13:22:33.245Z,45
2016-10-06T13:23:43.277Z,45
2016-10-06T13:24:53.646Z,45
2016-10-06T13:26:03.698Z,45
2016-10-06T13:27:13.361Z,45
2016-10-06T13:28:23.043Z,45
2016-10-06T13:29:33.388Z,45
2016-10-06T13:30:43.410Z,40
2016-10-06T13:31:53.437Z,35
2016-10-06T13:33:03.151Z,35
2016-10-06T13:34:13.480Z,30
2016-10-06T13:35:23.476Z,30
2016-10-06T13:36:33.225Z,30
2016-10-06T13:37:43.696Z,30
2016-10-06T13:38:54.016Z,30
2016-10-06T13:40:04.020Z,30
2016-10-06T13:41:14.017Z,30
2016-10-06T13:42:24.058Z,30
2016-10-06T13:43:34.367Z,25
2016-10-06T13:44:45.486Z,25
2016-10-06T13:45:56.344Z,25
2016-10-06T13:47:07.244Z,25
2016-10-06T13:48:17.950Z,25
2016-10-06T13:49:27.756Z,25
2016-10-06T13:50:38.343Z,25
2016-10-06T13:51:48.409Z,25
2016-10-06T13:52:58.717Z,30
2016-10-06T13:54:08.701Z,35
2016-10-06T13:55:18.987Z,30
2016-10-06T13:56:29.297Z,30
2016-10-06T13:57:39.582Z,30
2016-10-06T13:58:49.903Z,30
2016-10-06T14:00:00.218Z,30
2016-10-06T14:01:10.205Z,30
2016-10-06T14:02:20.488Z,30
2016-10-06T14:03:30.795Z,30
2016-10-06T14:04:40.797Z,30
2016-10-06T14:05:51.138Z,30
2016-10-06T14:07:01.126Z,30
2016-10-06T14:08:11.098Z,25
2016-10-06T14:09:21.105Z,25
2016-10-06T14:10:31.406Z,25
2016-10-06T14:11:40.797Z,25
2016-10-06T14:12:51.111Z,25
2016-10-06T14:14:01.411Z,20
2016-10-06T14:15:11.428Z,20
2016-10-06T14:16:21.118Z,20
2016-10-06T14:17:31.126Z,20
2016-10-06T14:18:41.422Z,20
2016-10-06T14:19:51.421Z,20
2016-10-06T14:21:01.401Z,20
2016-10-06T14:22:11.421Z,20
2016-10-06T14:23:21.436Z,20
2016-10-06T14:24:31.427Z,20
2016-10-06T14:25:41.964Z,20
2016-10-06T14:26:52.276Z,20
2016-10-06T14:28:02.579Z,20
2016-10-06T14:29:12.563Z,20
2016-10-06T14:30:22.551Z,20
2016-10-06T14:31:32.847Z,20
2016-10-06T14:32:43.157Z,20
2016-10-06T14:33:53.466Z,20
2016-10-06T14:35:03.446Z,20
2016-10-06T14:36:13.442Z,20
2016-10-06T14:37:23.735Z,20
2016-10-06T14:38:33.406Z,20
2016-10-06T14:39:43.689Z,20
2016-10-06T14:40:54.010Z,20
2016-10-06T14:42:04.015Z,20
2016-10-06T14:43:14.333Z,20
2016-10-06T14:44:24.636Z,20
2016-10-06T14:45:34.322Z,20
2016-10-06T14:46:44.302Z,20
2016-10-06T14:47:54.599Z,20
2016-10-06T14:49:04.907Z,20
2016-10-06T14:50:15.445Z,15
2016-10-06T14:51:25.435Z,15
2016-10-06T14:52:35.438Z,15
2016-10-06T14:53:45.429Z,15
2016-10-06T14:54:55.769Z,15
2016-10-06T14:56:06.077Z,15
2016-10-06T14:57:16.376Z,15
2016-10-06T14:58:26.375Z,15
2016-10-06T14:59:36.379Z,15
2016-10-06T15:00:46.054Z,15
2016-10-06T15:01:56.366Z,15
2016-10-06T15:03:06.363Z,15
2016-10-06T15:04:16.365Z,15
2016-10-06T15:05:26.678Z,15
2016-10-06T15:06:36.999Z,15
2016-10-06T15:07:46.995Z,15
2016-10-06T15:08:56.676Z,10
2016-10-06T15:10:06.977Z,10
2016-10-06T15:11:16.693Z,10
2016-10-06T15:12:26.402Z,10
2016-10-06T15:13:36.402Z,10
2016-10-06T15:14:46.937Z,10
2016-10-06T15:15:57.289Z,10
2016-10-06T15:17:07.612Z,10
2016-10-06T15:18:17.600Z,10
2016-10-06T15:19:27.902Z,10
2016-10-06T15:20:38.212Z,10
2016-10-06T15:21:47.908Z,10
2016-10-06T15:22:58.262Z,10
2016-10-06T15:24:08.574Z,10
2016-10-06T15:25:18.890Z,5
2016-10-06T15:26:28.597Z,5
2016-10-06T15:27:38.618Z,5
2016-10-06T15:28:48.926Z,5
2016-10-06T15:29:59.229Z,5
2016-10-06T15:31:09.215Z,5
2016-10-06T15:32:18.922Z,5
2016-10-06T15:33:28.946Z,5
2016-10-06T15:34:39.271Z,5
2016-10-06T15:35:49.320Z,5
2016-10-06T15:36:59.645Z,5
2016-10-06T15:38:09.348Z,5
2016-10-06T15:39:19.644Z,5
2016-10-06T15:40:29.034Z,5
2016-10-06T15:41:39.034Z,5
2016-10-06T15:42:49.356Z,5
2016-10-06T15:43:59.389Z,5
2016-10-06T15:45:09.415Z,5
2016-10-06T15:46:19.750Z,5
2016-10-06T15:47:30.082Z,5
2016-10-06T15:48:40.400Z,5
2016-10-06T15:49:50.421Z,5
2016-10-06T15:51:00.427Z,5
2016-10-06T15:52:10.746Z,5
2016-10-06T15:53:21.054Z,5
2016-10-06T15:54:31.269Z,5
2016-10-06T15:55:41.279Z,5
2016-10-06T15:56:50.966Z,5
2016-10-06T15:58:01.305Z,5
2016-10-06T15:59:11.312Z,5
2016-10-06T16:00:21.615Z,5
2016-10-06T16:01:31.922Z,5
2016-10-06T16:02:41.607Z,5
2016-10-06T16:03:51.907Z,5
2016-10-06T16:05:01.608Z,5
2016-10-06T16:06:11.928Z,0
2016-10-06T16:07:22.224Z,0
2016-10-06T16:08:32.543Z,0
2016-10-06T16:09:42.858Z,0
2016-10-06T16:10:53.414Z,0
2016-10-06T16:12:03.726Z,0
2016-10-06T16:13:14.055Z,0
2016-10-06T16:14:24.065Z,0
2016-10-06T16:15:34.388Z,0
2016-10-06T16:16:44.077Z,0
2016-10-06T16:17:54.379Z,0
2016-10-06T16:19:04.367Z,0
2016-10-06T16:20:14.363Z,0
2016-10-06T16:21:24.366Z,0
2016-10-06T16:22:34.362Z,0
2016-10-06T16:23:44.363Z,0
2016-10-06T16:24:54.662Z,0
2016-10-06T16:26:04.975Z,0
2016-10-06T16:27:14.968Z,0
2016-10-06T16:28:25.313Z,0
2016-10-06T16:29:34.989Z,0
2016-10-06T16:30:45.319Z,0
2016-10-06T16:31:55.299Z,0
2016-10-06T16:33:05.580Z,0
2016-10-06T16:34:15.592Z,0
2016-10-06T16:35:25.898Z,0
2016-10-06T16:36:36.201Z,0
2016-10-06T16:37:45.883Z,0
2016-10-06T16:38:56.172Z,0
2016-10-06T16:40:05.857Z,0
2016-10-06T16:41:16.160Z,0
2016-10-06T16:42:26.160Z,0
2016-10-06T16:43:36.151Z,0
2016-10-06T16:44:46.463Z,0
2016-10-06T16:45:56.766Z,0
2016-10-06T16:47:06.456Z,0
2016-10-06T16:48:16.448Z,0
2016-10-06T16:49:26.136Z,0
2016-10-06T16:50:36.135Z,0
2016-10-06T16:51:46.451Z,0
2016-10-06T16:52:56.459Z,0
2016-10-06T16:54:06.446Z,0
2016-10-06T16:55:16.757Z,0
2016-10-06T16:56:27.058Z,0
2016-10-06T16:57:36.778Z,0
2016-10-06T16:58:46.761Z,0
2016-10-06T16:59:57.088Z,0
2016-10-06T17:01:07.391Z,0
2016-10-06T17:02:17.423Z,0
2016-10-06T17:03:27.124Z,0
2016-10-06T17:04:37.441Z,0
2016-10-06T17:05:47.738Z,0
2016-10-06T17:06:57.748Z,0
2016-10-06T17:08:07.135Z,0
2016-10-06T17:09:17.458Z,0
2016-10-06T17:10:27.777Z,0
2016-10-06T17:11:38.098Z,0
2016-10-06T17:12:48.412Z,0
2016-10-06T17:13:58.700Z,0
2016-10-06T17:15:09.000Z,0
2016-10-06T17:16:18.990Z,0
2016-10-06T17:17:29.008Z,0
2016-10-06T17:18:39.302Z,0
2016-10-06T17:19:49.617Z,0